Time;durP1;ratioP1;P1;durP2;ratioP2;P2;SDS_P1;SDS_P2;PMS_P1;PMS_P2;Temp;Humidity;BMP_temperature;BMP_pressure;BME280_temperature;BME280_humidity;BME280_pressure;Samples;Min_cycle;Max_cycle;Signal;HPM_P1;HPM_P2
2022/12/11 00:01:54;;;;;;;70.95;40.40;;;15.90;50.10;;;;;;5035112;28;20679;-66
2022/12/11 00:04:21;;;;;;;71.47;42.17;;;15.90;50.00;;;;;;5034907;28;20215;-66
2022/12/11 00:06:50;;;;;;;65.50;39.83;;;15.80;50.10;;;;;;5035292;28;20567;-66
2022/12/11 00:09:17;;;;;;;70.72;40.47;;;15.80;50.10;;;;;;5034796;28;20219;-65
2022/12/11 00:11:44;;;;;;;72.20;41.15;;;15.80;50.20;;;;;;5052878;28;20192;-66
2022/12/11 00:14:12;;;;;;;69.07;40.92;;;15.80;50.30;;;;;;5035595;28;20202;-66
2022/12/11 00:16:39;;;;;;;69.28;38.95;;;15.70;50.20;;;;;;5035169;28;20563;-66
2022/12/11 00:19:06;;;;;;;63.22;38.25;;;15.70;50.00;;;;;;5052909;28;20257;-66
2022/12/11 00:21:33;;;;;;;64.28;38.80;;;15.60;50.10;;;;;;5034798;28;20210;-66
2022/12/11 00:24:02;;;;;;;63.75;38.05;;;15.60;50.10;;;;;;5037860;28;20218;-66
2022/12/11 00:26:29;;;;;;;60.28;36.63;;;15.70;50.30;;;;;;5038373;28;20293;-66
2022/12/11 00:28:56;;;;;;;63.42;37.95;;;15.60;50.20;;;;;;5038461;28;20223;-66
2022/12/11 00:31:23;;;;;;;66.45;36.47;;;15.60;50.10;;;;;;5038472;28;20661;-66
2022/12/11 00:33:50;;;;;;;62.40;36.03;;;15.60;50.00;;;;;;5038299;28;20195;-66
2022/12/11 00:36:18;;;;;;;63.85;37.75;;;15.50;50.10;;;;;;5056066;28;20195;-66
2022/12/11 00:38:45;;;;;;;61.83;36.53;;;15.50;50.10;;;;;;5038026;28;20272;-66
2022/12/11 00:41:15;;;;;;;59.30;35.58;;;15.50;50.10;;;;;;5038249;28;20199;-66
2022/12/11 00:43:42;;;;;;;57.45;34.97;;;15.50;50.10;;;;;;5039207;28;20216;-66
2022/12/11 00:46:09;;;;;;;54.05;33.80;;;15.40;50.20;;;;;;5038141;28;20249;-66
2022/12/11 00:48:36;;;;;;;58.00;35.42;;;15.50;50.30;;;;;;5055808;28;20215;-66
2022/12/11 00:51:04;;;;;;;55.88;34.60;;;15.40;50.00;;;;;;5055957;28;20195;-66
2022/12/11 00:53:30;;;;;;;53.00;33.50;;;15.40;50.10;;;;;;5038096;28;20191;-66
2022/12/11 00:55:58;;;;;;;54.45;33.88;;;15.40;50.20;;;;;;5038039;28;20200;-66
2022/12/11 00:58:26;;;;;;;55.90;35.28;;;15.40;50.20;;;;;;5037901;28;20215;-66
2022/12/11 01:00:53;;;;;;;62.42;37.17;;;15.30;50.00;;;;;;5037744;28;20249;-66
2022/12/11 01:03:20;;;;;;;65.50;37.83;;;15.40;50.40;;;;;;5056398;28;20285;-66
2022/12/11 01:05:53;;;;;;;59.72;35.20;;;15.30;50.10;;;;;;5055878;28;20196;-66
2022/12/11 01:08:21;;;;;;;54.92;32.22;;;15.30;50.20;;;;;;5055659;28;20215;-66
2022/12/11 01:10:47;;;;;;;57.72;33.03;;;15.30;50.10;;;;;;5056079;28;20199;-66
2022/12/11 01:13:14;;;;;;;45.17;30.10;;;15.30;50.30;;;;;;5037918;28;20187;-66
2022/12/11 01:15:44;;;;;;;49.92;30.65;;;15.30;50.10;;;;;;5038676;28;20229;-66
2022/12/11 01:18:11;;;;;;;49.25;30.40;;;15.30;50.30;;;;;;5038180;28;20685;-66
2022/12/11 01:20:39;;;;;;;50.72;31.33;;;15.30;50.20;;;;;;5039009;28;20665;-66
2022/12/11 01:23:06;;;;;;;48.10;31.67;;;15.20;50.00;;;;;;5057409;28;20217;-66
2022/12/11 01:25:36;;;;;;;48.30;30.42;;;15.20;50.40;;;;;;5038084;28;20286;-66
2022/12/11 01:28:04;;;;;;;46.10;29.02;;;15.20;50.30;;;;;;5038536;28;20226;-66
2022/12/11 01:30:31;;;;;;;50.38;29.63;;;15.20;50.00;;;;;;5037927;28;20559;-66
2022/12/11 01:32:59;;;;;;;47.38;29.42;;;15.10;50.30;;;;;;5037529;28;20203;-66
2022/12/11 01:35:26;;;;;;;42.88;27.83;;;15.10;50.30;;;;;;5036803;28;20245;-66
2022/12/11 01:37:53;;;;;;;48.33;28.52;;;15.10;50.30;;;;;;5037277;28;20592;-66
2022/12/11 01:40:21;;;;;;;47.42;28.65;;;15.10;50.40;;;;;;5037310;28;20230;-66
2022/12/11 01:42:48;;;;;;;44.95;29.02;;;15.10;50.30;;;;;;5055008;28;20198;-66
2022/12/11 01:45:37;;;;;;;46.25;28.05;;;15.10;50.20;;;;;;5037045;28;20211;-66
2022/12/11 01:48:08;;;;;;;44.65;27.60;;;15.10;50.40;;;;;;5037040;28;20219;-66
2022/12/11 01:50:38;;;;;;;42.50;27.25;;;15.10;50.30;;;;;;5036973;28;20203;-66
2022/12/11 01:53:07;;;;;;;44.30;27.92;;;15.00;50.60;;;;;;5036924;28;20253;-66
2022/12/11 01:55:34;;;;;;;43.53;27.00;;;15.00;50.50;;;;;;5037524;28;20199;-66
2022/12/11 01:58:01;;;;;;;39.50;26.80;;;15.00;50.50;;;;;;5036854;28;20259;-66
2022/12/11 02:00:28;;;;;;;40.83;26.08;;;15.00;50.50;;;;;;5037020;28;20211;-66
2022/12/11 02:02:56;;;;;;;36.53;25.23;;;15.00;50.50;;;;;;5036811;28;20269;-66
2022/12/11 02:05:24;;;;;;;42.17;26.10;;;15.00;50.40;;;;;;5036658;28;20222;-66
2022/12/11 02:07:52;;;;;;;39.28;26.10;;;15.00;50.30;;;;;;5036448;28;20309;-66
2022/12/11 02:10:20;;;;;;;35.08;25.25;;;15.00;50.60;;;;;;5036829;28;20249;-66
2022/12/11 02:12:53;;;;;;;35.95;23.88;;;15.00;50.50;;;;;;5036389;28;20229;-66
2022/12/11 02:15:25;;;;;;;37.63;26.08;;;15.00;50.50;;;;;;5037082;28;20191;-66
2022/12/11 02:17:54;;;;;;;35.10;24.63;;;15.00;50.50;;;;;;5036242;28;20215;-66
2022/12/11 02:20:24;;;;;;;41.45;26.00;;;14.90;50.40;;;;;;5036377;28;20204;-66
2022/12/11 02:23:05;;;;;;;37.40;24.27;;;14.90;50.50;;;;;;5036677;28;20665;-66
2022/12/11 02:25:34;;;;;;;38.03;24.17;;;14.90;50.30;;;;;;5037279;28;20202;-66
2022/12/11 02:28:17;;;;;;;38.55;23.95;;;14.90;50.50;;;;;;5036210;28;20220;-66
2022/12/11 02:30:45;;;;;;;37.83;23.00;;;14.90;50.30;;;;;;5036139;28;20207;-66
2022/12/11 02:33:11;;;;;;;36.03;24.27;;;14.90;50.50;;;;;;5053935;28;20188;-66
2022/12/11 02:35:41;;;;;;;36.78;23.63;;;14.90;50.50;;;;;;5035955;28;20234;-66
2022/12/11 02:38:09;;;;;;;35.03;22.73;;;14.90;50.40;;;;;;5035992;28;20219;-66
2022/12/11 02:40:37;;;;;;;37.58;23.45;;;14.90;50.30;;;;;;5053866;28;20210;-66
2022/12/11 02:43:06;;;;;;;37.05;23.73;;;14.90;50.20;;;;;;5035938;28;20199;-66
2022/12/11 02:45:34;;;;;;;34.92;21.88;;;14.90;50.40;;;;;;5035450;28;20223;-66
2022/12/11 02:48:03;;;;;;;37.13;22.58;;;14.90;50.20;;;;;;5035423;28;20222;-66
2022/12/11 02:50:30;;;;;;;32.67;22.65;;;14.80;50.10;;;;;;5035761;28;20206;-66
2022/12/11 02:52:57;;;;;;;33.05;21.60;;;14.80;50.20;;;;;;5035839;28;20196;-66
2022/12/11 02:55:24;;;;;;;30.02;20.80;;;14.80;50.10;;;;;;5053879;28;20180;-67
2022/12/11 02:57:52;;;;;;;29.55;21.48;;;14.80;50.30;;;;;;5035756;28;20302;-66
2022/12/11 03:00:20;;;;;;;32.45;22.48;;;14.80;50.40;;;;;;5035761;28;20298;-66
2022/12/11 03:02:48;;;;;;;33.13;22.52;;;14.80;50.40;;;;;;5035401;28;20195;-66
2022/12/11 03:05:16;;;;;;;32.63;22.55;;;14.80;50.20;;;;;;5035659;28;20218;-66
2022/12/11 03:07:43;;;;;;;30.02;21.75;;;14.80;50.30;;;;;;5019498;28;20289;-66
2022/12/11 03:10:13;;;;;;;30.27;21.50;;;14.70;50.30;;;;;;5035376;28;20564;-66
2022/12/11 03:12:42;;;;;;;30.80;21.02;;;14.70;50.10;;;;;;5035417;28;20680;-66
2022/12/11 03:15:10;;;;;;;33.53;21.45;;;14.70;50.00;;;;;;5036093;28;20214;-66
2022/12/11 03:17:41;;;;;;;29.95;21.10;;;14.70;50.20;;;;;;5035514;28;20219;-66
2022/12/11 03:20:12;;;;;;;29.83;20.55;;;14.70;50.30;;;;;;5035610;28;20697;-66
2022/12/11 03:22:41;;;;;;;31.08;20.80;;;14.70;50.30;;;;;;5035950;28;20196;-66
2022/12/11 03:25:10;;;;;;;28.67;20.42;;;14.70;50.30;;;;;;5053263;28;20256;-66
2022/12/11 03:27:40;;;;;;;27.60;19.58;;;14.70;50.30;;;;;;5035340;28;20247;-66
2022/12/11 03:30:10;;;;;;;29.52;19.83;;;14.70;50.30;;;;;;5035957;28;20202;-66
2022/12/11 03:32:39;;;;;;;26.58;18.63;;;14.70;50.30;;;;;;5035469;28;20229;-66
2022/12/11 03:35:12;;;;;;;27.30;19.23;;;14.70;50.30;;;;;;5035369;28;20560;-66
2022/12/11 03:37:40;;;;;;;27.05;19.27;;;14.70;50.30;;;;;;5035715;28;20227;-65
2022/12/11 03:40:09;;;;;;;24.52;18.83;;;14.70;50.30;;;;;;5036412;28;20203;-65
2022/12/11 03:42:36;;;;;;;27.25;19.05;;;14.70;50.00;;;;;;5035394;28;20222;-65
2022/12/11 03:45:04;;;;;;;23.38;18.77;;;14.60;50.10;;;;;;5035159;28;20237;-65
2022/12/11 03:47:31;;;;;;;27.80;18.85;;;14.60;50.10;;;;;;5053597;28;20215;-65
2022/12/11 03:49:58;;;;;;;27.90;19.67;;;14.60;50.20;;;;;;5035628;28;20560;-65
2022/12/11 03:52:27;;;;;;;24.23;18.15;;;14.60;50.10;;;;;;5036217;28;20294;-65
2022/12/11 03:54:54;;;;;;;26.00;18.13;;;14.60;50.20;;;;;;5036484;28;20206;-65
2022/12/11 03:57:22;;;;;;;25.02;17.95;;;14.60;50.30;;;;;;5054268;28;20195;-65
2022/12/11 03:59:49;;;;;;;25.55;17.80;;;14.60;50.00;;;;;;5042496;28;20207;-65
2022/12/11 04:02:16;;;;;;;25.08;18.20;;;14.60;50.00;;;;;;5040129;28;20570;-65
2022/12/11 04:04:45;;;;;;;25.48;18.23;;;14.60;50.10;;;;;;5039585;28;20748;-65
2022/12/11 04:07:12;;;;;;;25.75;17.85;;;14.60;50.20;;;;;;5039127;28;20209;-66
2022/12/11 04:09:40;;;;;;;22.52;18.25;;;14.60;50.30;;;;;;5039074;28;20325;-65
2022/12/11 04:12:07;;;;;;;24.63;17.58;;;14.50;50.00;;;;;;5039133;28;20199;-66
2022/12/11 04:25:30;;;;;;;22.50;15.60;;;14.50;49.90;;;;;;5038933;28;20740;-65
2022/12/11 04:27:58;;;;;;;20.77;15.40;;;14.60;49.80;;;;;;5039170;28;20207;-66
2022/12/11 04:30:26;;;;;;;22.35;15.27;;;14.60;49.80;;;;;;5039340;28;20210;-66
2022/12/11 04:32:53;;;;;;;22.38;15.20;;;14.50;49.80;;;;;;5039468;28;20777;-66
2022/12/11 04:35:21;;;;;;;20.48;14.85;;;14.60;49.80;;;;;;5039284;28;20278;-65
2022/12/11 04:37:47;;;;;;;21.40;15.55;;;14.50;49.80;;;;;;5038813;28;20257;-65
2022/12/11 04:40:16;;;;;;;21.85;15.30;;;14.60;49.80;;;;;;5038746;28;20199;-66
2022/12/11 04:42:44;;;;;;;22.85;15.18;;;14.60;49.80;;;;;;5056307;28;20650;-66
2022/12/11 04:45:13;;;;;;;18.00;14.55;;;14.60;49.80;;;;;;5038248;28;20761;-66
2022/12/11 04:47:41;;;;;;;17.77;14.95;;;14.70;49.70;;;;;;5038425;28;20215;-66
2022/12/11 04:50:10;;;;;;;18.77;14.25;;;14.70;49.60;;;;;;5056049;28;20187;-66
2022/12/11 04:52:37;;;;;;;20.42;14.27;;;14.70;49.70;;;;;;5037914;28;20207;-66
2022/12/11 04:55:04;;;;;;;20.02;14.55;;;14.80;49.60;;;;;;5038103;28;20672;-66
2022/12/11 04:57:32;;;;;;;17.30;14.10;;;14.80;49.50;;;;;;5037807;28;20219;-66
2022/12/11 05:00:00;;;;;;;17.88;13.20;;;14.80;49.30;;;;;;5037869;28;20207;-66
2022/12/11 05:02:27;;;;;;;19.17;14.07;;;14.80;49.20;;;;;;5038021;28;20203;-66
2022/12/11 05:04:56;;;;;;;16.92;13.30;;;14.80;49.50;;;;;;5037719;28;20250;-66
2022/12/11 05:07:24;;;;;;;19.10;14.15;;;14.90;49.20;;;;;;5037717;28;20226;-66
2022/12/11 05:09:52;;;;;;;20.17;14.30;;;14.80;49.20;;;;;;5036672;28;20199;-66
2022/12/11 05:12:19;;;;;;;16.67;13.23;;;14.80;48.80;;;;;;5037557;28;20203;-66
2022/12/11 05:14:46;;;;;;;20.25;13.45;;;14.90;48.80;;;;;;5037660;28;20192;-66
2022/12/11 05:17:15;;;;;;;20.02;13.55;;;14.80;48.70;;;;;;5037614;28;20668;-66
2022/12/11 05:19:42;;;;;;;16.77;13.20;;;14.90;48.70;;;;;;5055587;28;20184;-66
2022/12/11 05:22:09;;;;;;;16.48;13.10;;;14.90;48.80;;;;;;5037992;28;20604;-66
2022/12/11 05:24:35;;;;;;;17.92;13.00;;;14.90;48.80;;;;;;5037254;28;20218;-66
2022/12/11 05:27:03;;;;;;;17.75;13.35;;;14.90;48.70;;;;;;5037473;28;20206;-66
2022/12/11 05:29:29;;;;;;;17.73;12.15;;;14.90;48.80;;;;;;5037392;28;20715;-66
2022/12/11 05:31:56;;;;;;;15.15;11.95;;;14.90;48.60;;;;;;5055344;28;20187;-66
2022/12/11 05:34:25;;;;;;;14.90;11.93;;;14.90;48.50;;;;;;5037696;28;20199;-66
2022/12/11 05:36:52;;;;;;;15.85;12.32;;;14.90;48.40;;;;;;5038447;28;20200;-66
2022/12/11 05:39:20;;;;;;;15.65;12.05;;;15.00;48.40;;;;;;5036979;28;20223;-66
2022/12/11 05:41:46;;;;;;;16.80;12.65;;;15.00;48.50;;;;;;5037549;28;20206;-66
2022/12/11 05:44:13;;;;;;;18.70;12.68;;;15.00;48.10;;;;;;5036969;28;20195;-66
2022/12/11 05:46:40;;;;;;;16.13;11.88;;;15.00;48.30;;;;;;5037108;28;20598;-66
2022/12/11 05:49:08;;;;;;;16.50;12.45;;;15.00;48.40;;;;;;5036994;28;20237;-66
2022/12/11 05:51:38;;;;;;;16.23;12.20;;;15.00;48.10;;;;;;5036953;28;20589;-66
2022/12/11 05:54:05;;;;;;;15.93;12.23;;;15.00;48.30;;;;;;5036931;28;20288;-66
2022/12/11 05:56:33;;;;;;;14.25;11.18;;;15.00;48.00;;;;;;5037183;28;20226;-66
2022/12/11 05:59:01;;;;;;;15.18;11.77;;;15.00;48.10;;;;;;5036763;28;20219;-66
2022/12/11 06:01:29;;;;;;;14.82;12.00;;;15.00;48.10;;;;;;5054593;28;20211;-66
2022/12/11 06:03:57;;;;;;;15.55;11.63;;;15.00;48.30;;;;;;5036665;28;20573;-66
2022/12/11 06:06:24;;;;;;;17.95;11.90;;;15.10;48.40;;;;;;5036561;28;20212;-66
2022/12/11 06:08:53;;;;;;;14.65;11.23;;;15.00;48.20;;;;;;5036548;28;20211;-66
2022/12/11 06:11:20;;;;;;;13.05;10.65;;;15.10;48.30;;;;;;5036702;28;20628;-66
2022/12/11 06:13:48;;;;;;;15.07;11.05;;;15.10;48.30;;;;;;5036507;28;20195;-66
2022/12/11 06:16:15;;;;;;;13.98;11.10;;;15.10;48.50;;;;;;5036805;28;20195;-66
2022/12/11 06:18:43;;;;;;;11.75;10.50;;;15.10;48.50;;;;;;5036541;28;20215;-66
2022/12/11 06:21:14;;;;;;;13.20;11.18;;;15.10;48.20;;;;;;5036287;28;20200;-66
2022/12/11 06:23:41;;;;;;;14.52;11.02;;;15.10;48.10;;;;;;5036644;28;20199;-66
2022/12/11 06:26:12;;;;;;;12.18;10.73;;;15.10;48.40;;;;;;5036442;28;20765;-66
2022/12/11 06:28:40;;;;;;;13.68;10.98;;;15.00;48.50;;;;;;5036536;28;20223;-66
2022/12/11 06:31:07;;;;;;;13.25;10.77;;;15.00;48.40;;;;;;5036670;28;20213;-66
2022/12/11 06:33:34;;;;;;;15.32;11.05;;;15.00;48.30;;;;;;5054355;28;20217;-65
2022/12/11 06:36:02;;;;;;;13.55;10.25;;;15.00;48.30;;;;;;5036970;28;20253;-65
2022/12/11 06:38:29;;;;;;;12.35;10.65;;;15.00;48.10;;;;;;5021462;28;20260;-65
2022/12/11 06:40:56;;;;;;;12.32;10.30;;;15.00;48.10;;;;;;5037092;28;20199;-65
2022/12/11 06:43:24;;;;;;;14.30;10.73;;;15.10;48.30;;;;;;5036699;28;20222;-65
2022/12/11 06:45:54;;;;;;;11.50;10.20;;;15.10;48.30;;;;;;5036362;28;20215;-65
2022/12/11 06:48:20;;;;;;;13.18;9.85;;;15.10;48.30;;;;;;5036356;28;20227;-64
2022/12/11 06:50:48;;;;;;;11.27;9.82;;;15.10;48.30;;;;;;5036158;28;20195;-65
2022/12/11 06:53:15;;;;;;;12.48;8.98;;;15.10;48.10;;;;;;5035869;28;20661;-65
2022/12/11 06:55:42;;;;;;;13.13;10.20;;;15.10;48.30;;;;;;5036238;28;20286;-65
2022/12/11 06:58:10;;;;;;;11.32;9.32;;;15.10;47.90;;;;;;5035923;28;20238;-65
2022/12/11 07:00:39;;;;;;;13.55;9.48;;;15.10;48.00;;;;;;5036268;28;20645;-65
2022/12/11 07:03:05;;;;;;;11.02;9.77;;;15.10;48.30;;;;;;5036182;28;20553;-65
2022/12/11 07:05:33;;;;;;;11.13;9.63;;;15.10;48.10;;;;;;5035745;28;20230;-65
2022/12/11 07:08:00;;;;;;;12.70;9.60;;;15.00;48.00;;;;;;5036018;28;20633;-65
2022/12/11 07:10:28;;;;;;;12.93;9.63;;;15.00;48.10;;;;;;5053864;28;20199;-65
2022/12/11 07:12:55;;;;;;;11.43;9.38;;;15.10;48.00;;;;;;5035656;28;20195;-65
2022/12/11 07:15:22;;;;;;;11.23;9.55;;;15.00;47.90;;;;;;5035450;28;20197;-65
2022/12/11 07:17:51;;;;;;;13.23;9.45;;;15.10;48.00;;;;;;5036011;28;20373;-65
2022/12/11 07:20:18;;;;;;;11.18;9.40;;;15.10;47.90;;;;;;5035584;28;20662;-65
2022/12/11 07:22:45;;;;;;;9.82;8.80;;;15.10;48.00;;;;;;5035646;28;20195;-65
2022/12/11 07:25:12;;;;;;;12.75;10.15;;;15.10;47.90;;;;;;5035604;28;20223;-65
2022/12/11 07:27:40;;;;;;;10.70;9.13;;;15.10;47.70;;;;;;5035455;28;20223;-65
2022/12/11 07:30:09;;;;;;;11.57;9.45;;;15.10;47.80;;;;;;5035799;28;20252;-65
2022/12/11 07:32:36;;;;;;;11.18;9.43;;;15.10;47.80;;;;;;5037269;28;20287;-65
2022/12/11 07:35:06;;;;;;;10.77;9.10;;;15.10;47.70;;;;;;5041117;28;20198;-65
2022/12/11 07:37:33;;;;;;;11.13;9.00;;;15.20;47.70;;;;;;5041084;28;20647;-65
2022/12/11 07:40:00;;;;;;;10.68;9.15;;;15.20;47.80;;;;;;5041619;28;20203;-65
2022/12/11 07:42:28;;;;;;;11.05;9.23;;;15.20;47.50;;;;;;5040526;28;20281;-65
2022/12/11 07:44:55;;;;;;;9.77;8.63;;;15.20;47.60;;;;;;5040680;28;20253;-65
2022/12/11 07:47:23;;;;;;;11.68;9.30;;;15.20;47.80;;;;;;5040874;28;20243;-64
2022/12/11 07:49:50;;;;;;;10.35;8.32;;;15.30;47.70;;;;;;5041007;28;20210;-64
2022/12/11 07:52:18;;;;;;;10.05;8.70;;;15.30;48.50;;;;;;5040634;28;20281;-65
2022/12/11 07:54:47;;;;;;;10.05;8.60;;;15.30;47.90;;;;;;5041184;28;20233;-65
2022/12/11 07:57:14;;;;;;;10.23;8.50;;;15.30;47.50;;;;;;5040975;28;20202;-65
2022/12/11 07:59:41;;;;;;;9.38;8.35;;;15.30;47.50;;;;;;5058278;28;20226;-65
2022/12/11 08:02:10;;;;;;;10.57;8.73;;;15.30;47.50;;;;;;5040806;28;20199;-65
2022/12/11 08:04:37;;;;;;;9.60;8.55;;;15.30;47.50;;;;;;5039062;28;20661;-65
2022/12/11 08:07:04;;;;;;;9.65;8.63;;;15.40;47.20;;;;;;5039155;28;20254;-65
2022/12/11 08:09:33;;;;;;;9.20;8.13;;;15.30;47.20;;;;;;5038908;28;20195;-65
2022/12/11 08:12:00;;;;;;;9.05;8.15;;;15.40;47.10;;;;;;5039001;28;20199;-65
2022/12/11 08:14:27;;;;;;;9.60;8.13;;;15.40;47.10;;;;;;5038685;28;20199;-64
2022/12/11 08:16:56;;;;;;;9.80;8.30;;;15.40;47.20;;;;;;5056615;28;20192;-65
2022/12/11 08:19:23;;;;;;;9.70;8.40;;;15.50;46.90;;;;;;5038581;28;20701;-65
2022/12/11 08:21:51;;;;;;;9.27;8.18;;;15.50;46.90;;;;;;5038925;28;20203;-65
2022/12/11 08:24:19;;;;;;;9.57;8.48;;;15.50;47.00;;;;;;5039192;28;20225;-65
2022/12/11 08:26:49;;;;;;;9.07;8.10;;;15.60;46.90;;;;;;5038737;28;20220;-65
2022/12/11 08:29:17;;;;;;;9.77;7.97;;;15.60;46.70;;;;;;5038236;28;20227;-65
2022/12/11 08:31:43;;;;;;;10.40;8.90;;;15.60;46.70;;;;;;5022609;28;20267;-65
2022/12/11 08:34:12;;;;;;;9.10;7.97;;;15.70;46.60;;;;;;5038405;28;20206;-65
2022/12/11 08:36:40;;;;;;;10.18;8.13;;;15.70;46.50;;;;;;5038661;28;20199;-65
2022/12/11 08:39:07;;;;;;;9.52;8.20;;;15.70;46.70;;;;;;5039008;28;20302;-65
2022/12/11 08:41:35;;;;;;;9.73;8.73;;;15.70;46.60;;;;;;5038224;28;20260;-65
2022/12/11 08:44:03;;;;;;;8.93;7.93;;;15.80;46.40;;;;;;5037434;28;20195;-65
2022/12/11 08:46:31;;;;;;;9.30;8.30;;;15.80;47.00;;;;;;5038385;28;20219;-65
2022/12/11 08:48:59;;;;;;;10.43;8.48;;;15.90;46.40;;;;;;5038168;28;20227;-65
2022/12/11 08:51:27;;;;;;;9.15;8.25;;;15.90;46.40;;;;;;5056644;28;20188;-65
2022/12/11 08:53:54;;;;;;;9.35;8.45;;;15.90;46.30;;;;;;5038683;28;20200;-65
2022/12/11 08:56:22;;;;;;;9.50;8.27;;;15.90;46.20;;;;;;5039288;28;20194;-65
2022/12/11 08:58:49;;;;;;;9.02;8.02;;;15.90;46.10;;;;;;5022152;28;20656;-65
2022/12/11 09:01:20;;;;;;;8.60;7.70;;;15.90;46.10;;;;;;5039118;28;20199;-65
2022/12/11 09:03:47;;;;;;;9.10;8.10;;;15.90;46.10;;;;;;5056166;28;20207;-65
2022/12/11 09:06:15;;;;;;;11.27;9.93;;;15.90;46.30;;;;;;5038202;28;20218;-65
2022/12/11 09:08:43;;;;;;;9.95;8.80;;;15.90;46.30;;;;;;5038794;28;20227;-65
2022/12/11 09:11:12;;;;;;;10.10;8.45;;;15.90;46.20;;;;;;5038185;28;20261;-65
2022/12/11 09:13:39;;;;;;;9.35;8.45;;;15.90;46.30;;;;;;5038406;28;20199;-65
2022/12/11 09:16:08;;;;;;;9.80;8.30;;;15.90;46.20;;;;;;5039789;28;20196;-65
2022/12/11 09:18:36;;;;;;;10.15;8.23;;;15.90;46.00;;;;;;5038792;28;20642;-65
2022/12/11 09:21:03;;;;;;;9.57;8.32;;;15.90;46.10;;;;;;5056210;28;20198;-65
2022/12/11 09:23:30;;;;;;;9.32;8.27;;;15.90;46.20;;;;;;5038245;28;20195;-66
2022/12/11 09:25:57;;;;;;;9.65;8.65;;;15.90;46.00;;;;;;5038145;28;20272;-66
2022/12/11 09:28:25;;;;;;;8.55;7.60;;;15.90;46.00;;;;;;5039005;28;20581;-66
2022/12/11 09:30:52;;;;;;;9.57;8.57;;;15.90;46.20;;;;;;5024810;28;20253;-64
2022/12/11 09:33:19;;;;;;;8.98;8.07;;;15.90;46.10;;;;;;5058821;28;20664;-65
2022/12/11 09:35:56;;;;;;;9.15;8.15;;;15.90;45.90;;;;;;5039164;28;20196;-64
2022/12/11 09:38:23;;;;;;;8.63;7.75;;;16.00;46.10;;;;;;5037639;28;20223;-64
2022/12/11 09:40:50;;;;;;;9.30;8.30;;;16.00;45.90;;;;;;5037818;28;20204;-63
2022/12/11 09:43:22;;;;;;;9.40;8.35;;;16.00;45.80;;;;;;5021914;28;20195;-65
2022/12/11 09:45:49;;;;;;;8.70;7.75;;;16.00;46.00;;;;;;5037384;28;20302;-64
2022/12/11 09:48:17;;;;;;;9.68;8.20;;;16.10;46.30;;;;;;5037256;28;20739;-65
2022/12/11 09:50:44;;;;;;;9.07;8.00;;;16.20;46.10;;;;;;5037681;28;20195;-65
2022/12/11 09:53:15;;;;;;;8.38;7.45;;;16.20;46.80;;;;;;5037684;28;20239;-65
2022/12/11 09:55:46;;;;;;;13.55;11.10;;;16.30;46.40;;;;;;5036712;28;20298;-65
2022/12/11 09:58:16;;;;;;;12.07;8.80;;;16.30;46.40;;;;;;5037222;28;20219;-64
2022/12/11 10:00:45;;;;;;;11.27;9.13;;;16.30;46.90;;;;;;5037034;28;20732;-66
2022/12/11 10:03:50;;;;;;;9.52;8.63;;;16.40;46.90;;;;;;5037080;28;20202;-66
2022/12/11 10:06:21;;;;;;;8.77;7.88;;;16.50;47.00;;;;;;5036814;28;20215;-66
2022/12/11 10:08:54;;;;;;;9.48;7.93;;;16.60;47.40;;;;;;5037487;28;20668;-66
2022/12/11 10:11:49;;;;;;;9.37;8.20;;;16.60;47.10;;;;;;5036569;28;20431;-66
2022/12/11 10:14:19;;;;;;;9.77;8.65;;;16.70;49.70;;;;;;5035717;28;20456;-66
2022/12/11 10:16:49;;;;;;;674.92;435.42;;;16.70;50.60;;;;;;5036572;28;20179;-66
2022/12/11 10:19:18;;;;;;;352.98;247.50;;;16.80;52.90;;;;;;5036583;28;20219;-66
2022/12/11 10:21:46;;;;;;;512.97;350.95;;;16.90;53.40;;;;;;5054334;28;20192;-64
2022/12/11 10:24:16;;;;;;;249.50;174.32;;;16.90;56.00;;;;;;5036277;28;20234;-64
2022/12/11 10:26:43;;;;;;;192.02;129.98;;;17.00;53.70;;;;;;5037109;28;20219;-64
2022/12/11 10:29:12;;;;;;;174.30;125.95;;;17.10;52.50;;;;;;5054026;28;20223;-65
2022/12/11 10:31:42;;;;;;;168.18;118.10;;;17.20;51.90;;;;;;5036335;28;20195;-65
2022/12/11 10:34:11;;;;;;;162.35;116.03;;;17.30;51.60;;;;;;5036372;28;20299;-64
2022/12/11 10:36:40;;;;;;;158.85;114.53;;;17.40;51.20;;;;;;5036223;28;20221;-65
2022/12/11 10:39:12;;;;;;;169.05;113.90;;;17.40;50.80;;;;;;5035872;28;20297;-64
2022/12/11 10:41:41;;;;;;;156.77;110.22;;;17.50;50.50;;;;;;5036197;28;20192;-64
2022/12/11 10:44:19;;;;;;;161.60;110.32;;;17.50;50.60;;;;;;5036893;28;20187;-64
2022/12/11 10:46:46;;;;;;;157.05;109.30;;;17.50;50.20;;;;;;5035716;28;20269;-64
2022/12/11 10:49:24;;;;;;;160.13;107.07;;;17.50;49.40;;;;;;5035831;28;20215;-64
2022/12/11 10:51:52;;;;;;;144.73;103.55;;;17.60;49.90;;;;;;5053886;28;20202;-65
2022/12/11 10:54:31;;;;;;;143.15;105.47;;;17.60;49.20;;;;;;5036002;28;20662;-65
2022/12/11 10:57:00;;;;;;;144.10;100.28;;;17.50;49.30;;;;;;5035827;28;20195;-65
2022/12/11 10:59:31;;;;;;;135.35;97.05;;;17.50;48.90;;;;;;5035548;28;20280;-65
2022/12/11 11:01:59;;;;;;;125.25;92.15;;;17.50;48.70;;;;;;5036671;28;20196;-65
2022/12/11 11:04:29;;;;;;;139.25;97.45;;;17.50;49.40;;;;;;5035653;28;20653;-65
2022/12/11 11:07:04;;;;;;;130.32;93.15;;;17.50;49.30;;;;;;5035150;28;20216;-65
2022/12/11 11:09:34;;;;;;;125.97;88.97;;;17.50;49.50;;;;;;5035677;28;20400;-65
2022/12/11 11:12:02;;;;;;;141.55;97.03;;;17.50;49.50;;;;;;5035718;28;20294;-65
2022/12/11 11:14:29;;;;;;;123.88;85.65;;;17.50;49.70;;;;;;5035611;28;20569;-65
2022/12/11 11:16:57;;;;;;;121.57;85.97;;;17.50;49.70;;;;;;5035615;28;20641;-65
2022/12/11 11:19:25;;;;;;;108.97;79.07;;;17.50;49.30;;;;;;5035439;28;20287;-64
2022/12/11 11:21:54;;;;;;;110.13;80.45;;;17.50;49.40;;;;;;5035561;28;20203;-65
2022/12/11 11:24:28;;;;;;;117.20;81.65;;;17.50;49.50;;;;;;5036587;28;20191;-64
2022/12/11 11:26:56;;;;;;;109.47;77.53;;;17.50;49.70;;;;;;5035617;28;20270;-64
2022/12/11 11:29:28;;;;;;;105.03;72.38;;;17.50;49.60;;;;;;5053418;28;20286;-64
2022/12/11 11:31:55;;;;;;;103.38;73.68;;;17.50;49.70;;;;;;5036134;28;20195;-64
2022/12/11 11:34:22;;;;;;;100.90;71.95;;;17.50;50.10;;;;;;5035544;28;20295;-64
2022/12/11 11:36:56;;;;;;;96.28;65.00;;;17.50;49.80;;;;;;5035807;28;20191;-64
2022/12/11 11:39:26;;;;;;;101.30;70.45;;;17.50;49.90;;;;;;5035758;28;20239;-64
2022/12/11 11:41:56;;;;;;;93.20;65.22;;;17.50;49.90;;;;;;5053411;28;20653;-64
2022/12/11 11:44:28;;;;;;;92.10;62.90;;;17.50;49.80;;;;;;5036086;28;20600;-65
2022/12/11 11:46:59;;;;;;;102.57;68.32;;;17.50;49.70;;;;;;5035486;28;20211;-65
2022/12/11 11:49:44;;;;;;;87.15;57.60;;;17.50;50.40;;;;;;5035810;28;20400;-64
2022/12/11 11:52:13;;;;;;;159.60;91.15;;;17.50;51.10;;;;;;5037347;28;20194;-64
2022/12/11 11:54:42;;;;;;;115.03;71.22;;;17.50;54.60;;;;;;5035919;28;20432;-64
2022/12/11 11:57:13;;;;;;;118.78;74.13;;;17.50;54.60;;;;;;5035549;28;20650;-64
2022/12/11 11:59:46;;;;;;;110.20;73.50;;;17.50;55.60;;;;;;5034589;28;20493;-64
2022/12/11 12:02:14;;;;;;;113.18;70.57;;;17.50;57.20;;;;;;5035651;28;20569;-64
2022/12/11 12:04:41;;;;;;;110.00;70.32;;;17.50;56.80;;;;;;5035832;28;20200;-64
2022/12/11 12:07:15;;;;;;;113.60;69.57;;;17.50;56.10;;;;;;5035623;28;20582;-65
2022/12/11 12:09:47;;;;;;;103.63;64.72;;;17.50;51.90;;;;;;5036042;28;20201;-64
2022/12/11 12:12:17;;;;;;;112.25;64.10;;;17.40;52.20;;;;;;5035388;28;20195;-64
2022/12/11 12:14:55;;;;;;;102.13;59.22;;;17.40;51.60;;;;;;5053931;28;20194;-64
2022/12/11 12:17:25;;;;;;;82.68;54.53;;;17.40;51.00;;;;;;5035920;28;20195;-64
2022/12/11 12:19:58;;;;;;;86.38;54.40;;;17.40;50.60;;;;;;5037716;28;20196;-64
2022/12/11 12:22:32;;;;;;;87.78;54.10;;;17.40;50.40;;;;;;5038951;28;20187;-64
2022/12/11 12:25:03;;;;;;;82.32;52.63;;;17.30;50.40;;;;;;5038710;28;20195;-64
2022/12/11 12:27:33;;;;;;;87.93;51.78;;;17.30;50.80;;;;;;5038806;28;20619;-63
2022/12/11 12:30:03;;;;;;;82.07;52.03;;;17.30;50.30;;;;;;5039117;28;20203;-63
2022/12/11 12:32:32;;;;;;;87.70;51.88;;;17.30;50.40;;;;;;5039163;28;20180;-63
2022/12/11 12:35:06;;;;;;;74.63;49.47;;;17.30;50.40;;;;;;5038754;28;20206;-64
2022/12/11 12:37:44;;;;;;;85.82;50.15;;;17.30;50.20;;;;;;5038248;28;20210;-64
2022/12/11 12:40:16;;;;;;;82.25;50.00;;;17.30;49.90;;;;;;5039131;28;20199;-64
2022/12/11 12:42:46;;;;;;;80.88;48.20;;;17.30;49.80;;;;;;5038944;28;20389;-64
2022/12/11 12:45:22;;;;;;;69.95;46.97;;;17.30;49.70;;;;;;5038747;28;20187;-64
2022/12/11 12:47:49;;;;;;;70.53;43.78;;;17.30;50.00;;;;;;5056673;28;20242;-64